createdAt,value
2023-05-16T00:01:48.283Z,2.00
2023-05-16T00:04:15.129Z,3.30
2023-05-16T00:06:41.893Z,0.60
2023-05-16T00:09:08.506Z,1.80
2023-05-16T00:11:35.238Z,7.30
2023-05-16T00:14:02.686Z,2.10
2023-05-16T00:16:30.341Z,1.90
2023-05-16T00:19:00.933Z,0.70
2023-05-16T00:21:28.152Z,0.80
2023-05-16T00:23:54.853Z,1.90
2023-05-16T00:26:21.804Z,5.50
2023-05-16T00:28:48.870Z,1.10
2023-05-16T00:31:15.736Z,2.20
2023-05-16T00:33:42.628Z,2.10
2023-05-16T00:36:09.477Z,2.50
2023-05-16T00:38:36.135Z,2.10
2023-05-16T00:41:02.774Z,2.80
2023-05-16T00:43:29.724Z,1.60
2023-05-16T00:45:58.133Z,1.20
2023-05-16T00:48:25.102Z,3.30
2023-05-16T00:50:52.985Z,1.90
2023-05-16T00:53:20.112Z,5.90
2023-05-16T00:55:47.123Z,0.50
2023-05-16T00:58:13.905Z,2.90
2023-05-16T01:00:40.573Z,1.10
2023-05-16T01:03:07.499Z,4.40
2023-05-16T01:05:34.336Z,0.40
2023-05-16T01:08:01.066Z,1.90
2023-05-16T01:10:33.162Z,1.60
2023-05-16T01:13:16.175Z,1.20
2023-05-16T01:15:53.263Z,3.40
2023-05-16T01:18:31.471Z,1.10
2023-05-16T01:21:03.969Z,0.80
2023-05-16T01:23:43.589Z,2.90
2023-05-16T01:26:20.198Z,1.50
2023-05-16T01:28:47.041Z,1.50
2023-05-16T01:31:13.748Z,2.30
2023-05-16T01:33:40.498Z,1.60
2023-05-16T01:36:10.443Z,0.90
2023-05-16T01:38:41.954Z,1.60
2023-05-16T01:41:10.861Z,2.20
2023-05-16T01:43:47.046Z,1.00
2023-05-16T01:46:26.034Z,5.40
2023-05-16T01:49:01.559Z,2.00
2023-05-16T01:51:30.811Z,1.30
2023-05-16T01:54:01.463Z,2.50
2023-05-16T01:56:28.125Z,1.80
2023-05-16T01:58:54.845Z,1.90
2023-05-16T02:01:21.573Z,0.90
2023-05-16T02:03:48.243Z,3.10
2023-05-16T02:06:15.092Z,0.80
2023-05-16T02:08:41.774Z,1.20
2023-05-16T02:11:08.922Z,0.60
2023-05-16T02:13:35.669Z,2.20
2023-05-16T02:16:04.446Z,2.20
2023-05-16T02:18:31.318Z,1.70
2023-05-16T02:20:58.322Z,0.60
2023-05-16T02:23:25.055Z,1.20
2023-05-16T02:25:53.667Z,0.90
2023-05-16T02:28:22.434Z,2.10
2023-05-16T02:30:57.700Z,0.60
2023-05-16T02:33:26.997Z,1.10
2023-05-16T02:35:54.356Z,2.20
2023-05-16T02:38:21.252Z,1.10
2023-05-16T02:40:48.807Z,0.80
2023-05-16T02:43:15.724Z,2.80
2023-05-16T02:45:42.562Z,1.00
2023-05-16T02:48:09.582Z,0.80
2023-05-16T02:50:37.619Z,2.10
2023-05-16T02:53:04.774Z,0.80
2023-05-16T02:55:31.529Z,0.80
2023-05-16T02:57:58.141Z,0.70
2023-05-16T03:00:25.024Z,1.00
2023-05-16T03:02:52.038Z,4.10
2023-05-16T03:05:19.039Z,2.00
2023-05-16T03:07:45.678Z,1.20
2023-05-16T03:10:12.405Z,0.90
2023-05-16T03:12:39.056Z,1.10
2023-05-16T03:15:06.766Z,0.80
2023-05-16T03:17:34.025Z,1.50
2023-05-16T03:20:02.368Z,0.70
2023-05-16T03:22:29.022Z,1.00
2023-05-16T03:24:56.651Z,3.20
2023-05-16T03:27:23.289Z,2.40
2023-05-16T03:29:49.923Z,1.50
2023-05-16T03:32:17.078Z,3.10
2023-05-16T03:34:43.734Z,0.50
2023-05-16T03:37:11.041Z,0.50
2023-05-16T03:39:37.864Z,0.80
2023-05-16T03:42:04.946Z,2.00
2023-05-16T03:44:31.695Z,1.10
2023-05-16T03:46:58.796Z,3.10
2023-05-16T03:49:28.130Z,2.80
2023-05-16T03:51:55.155Z,0.60
2023-05-16T03:54:22.339Z,1.90
2023-05-16T03:56:48.973Z,0.60
2023-05-16T03:59:15.767Z,4.30
2023-05-16T04:01:42.613Z,0.60
2023-05-16T04:04:09.414Z,0.80
2023-05-16T04:06:36.546Z,1.10
2023-05-16T04:09:03.565Z,2.00
2023-05-16T04:11:30.878Z,0.70
2023-05-16T04:13:58.929Z,4.80
2023-05-16T04:16:25.802Z,0.70
2023-05-16T04:18:53.015Z,1.70
2023-05-16T04:21:19.743Z,1.40
2023-05-16T04:23:46.461Z,0.70
2023-05-16T04:26:14.541Z,0.60
2023-05-16T04:28:41.711Z,3.30
2023-05-16T04:33:35.022Z,0.70
2023-05-16T04:36:01.701Z,1.20
2023-05-16T04:38:28.443Z,1.70
2023-05-16T04:40:55.097Z,0.80
2023-05-16T04:43:21.776Z,0.80
2023-05-16T04:45:48.745Z,3.00
2023-05-16T04:48:15.539Z,4.30
2023-05-16T04:50:42.531Z,2.60
2023-05-16T04:53:09.341Z,1.10
2023-05-16T04:55:35.952Z,3.40
2023-05-16T04:58:02.809Z,2.00
2023-05-16T05:00:29.769Z,0.50
2023-05-16T05:02:56.938Z,1.30
2023-05-16T05:05:23.844Z,2.70
2023-05-16T05:07:50.592Z,2.10
2023-05-16T05:10:17.365Z,2.50
2023-05-16T05:12:44.014Z,0.50
2023-05-16T05:15:10.879Z,3.60
2023-05-16T05:17:38.141Z,1.90
2023-05-16T05:20:07.020Z,1.50
2023-05-16T05:22:33.996Z,1.60
2023-05-16T05:25:00.757Z,2.80
2023-05-16T05:27:27.790Z,3.10
2023-05-16T05:29:54.487Z,0.60
2023-05-16T05:32:21.251Z,5.30
2023-05-16T05:34:48.100Z,1.10
2023-05-16T05:37:14.919Z,1.20
2023-05-16T05:39:41.532Z,0.70
2023-05-16T05:42:08.208Z,1.60
2023-05-16T05:44:35.111Z,1.10
2023-05-16T05:47:01.734Z,5.30
2023-05-16T05:49:28.398Z,3.60
2023-05-16T05:51:55.289Z,2.70
2023-05-16T05:54:23.553Z,1.10
2023-05-16T05:56:50.279Z,2.20
2023-05-16T05:59:17.051Z,2.40
2023-05-16T06:01:46.896Z,0.80
2023-05-16T06:04:13.551Z,0.90
2023-05-16T06:06:40.369Z,1.10
2023-05-16T06:09:07.288Z,1.00
2023-05-16T06:11:33.945Z,0.80
2023-05-16T06:14:00.892Z,0.70
2023-05-16T06:16:27.669Z,1.60
2023-05-16T06:18:54.503Z,1.80
2023-05-16T06:21:21.489Z,5.30
2023-05-16T06:23:48.278Z,10.40
2023-05-16T06:26:14.993Z,6.40
2023-05-16T06:28:41.770Z,2.50
2023-05-16T06:31:08.464Z,1.00
2023-05-16T06:33:35.179Z,0.80
2023-05-16T06:39:01.575Z,1.50
2023-05-16T06:41:28.569Z,1.30
2023-05-16T06:43:55.223Z,4.70
2023-05-16T06:46:22.215Z,39.70
2023-05-16T06:48:49.060Z,17.00
2023-05-16T06:51:16.209Z,5.10
2023-05-16T06:53:42.944Z,1.60
2023-05-16T06:56:09.650Z,3.90
2023-05-16T06:58:36.749Z,2.00
2023-05-16T07:01:03.669Z,0.80
2023-05-16T07:03:31.980Z,0.60
2023-05-16T07:05:58.989Z,3.60
2023-05-16T07:08:26.160Z,1.50
2023-05-16T07:10:52.823Z,6.30
2023-05-16T07:13:19.592Z,0.90
2023-05-16T07:15:46.449Z,1.00
2023-05-16T07:18:13.217Z,6.10
2023-05-16T07:20:39.943Z,3.60
2023-05-16T07:23:06.880Z,3.70
2023-05-16T07:25:33.766Z,1.40
2023-05-16T07:28:01.151Z,1.90
2023-05-16T07:30:28.103Z,0.90
2023-05-16T07:32:54.918Z,0.90
2023-05-16T07:35:22.066Z,0.90
2023-05-16T07:37:48.828Z,1.30
2023-05-16T07:40:15.713Z,1.00
2023-05-16T07:42:42.376Z,1.60
2023-05-16T07:45:09.945Z,0.80
2023-05-16T07:47:36.717Z,0.90
2023-05-16T07:50:03.556Z,0.60
2023-05-16T07:52:30.382Z,4.20
2023-05-16T07:54:57.628Z,1.20
2023-05-16T07:57:25.314Z,1.20
2023-05-16T07:59:52.753Z,2.10
2023-05-16T08:02:19.766Z,1.70
2023-05-16T08:04:47.029Z,4.00
2023-05-16T08:07:13.930Z,2.00
2023-05-16T08:09:40.723Z,1.00
2023-05-16T08:12:08.015Z,4.40
2023-05-16T08:14:34.940Z,1.20
2023-05-16T08:17:01.832Z,1.40
2023-05-16T08:19:29.641Z,0.80
2023-05-16T08:21:56.771Z,1.10
2023-05-16T08:24:23.698Z,4.20
2023-05-16T08:26:50.741Z,0.70
2023-05-16T08:29:17.745Z,0.70
2023-05-16T08:31:44.664Z,1.90
2023-05-16T08:34:12.240Z,2.00
2023-05-16T08:36:39.061Z,1.40
2023-05-16T08:39:06.102Z,1.40
2023-05-16T08:41:33.054Z,3.70
2023-05-16T08:43:59.856Z,2.80
2023-05-16T08:46:26.814Z,1.40
2023-05-16T08:48:53.940Z,2.70
2023-05-16T08:51:20.898Z,1.80
2023-05-16T08:53:53.104Z,0.90
2023-05-16T08:56:19.998Z,1.20
2023-05-16T08:58:46.678Z,0.80
2023-05-16T09:01:13.763Z,2.20
2023-05-16T09:03:40.986Z,1.20
2023-05-16T09:06:08.444Z,2.30
2023-05-16T09:08:35.583Z,0.60
2023-05-16T09:11:05.655Z,1.10
2023-05-16T09:13:32.656Z,12.60
2023-05-16T09:16:16.272Z,0.70
2023-05-16T09:18:44.231Z,0.90
2023-05-16T09:21:11.646Z,0.80
2023-05-16T09:23:38.367Z,0.90
2023-05-16T09:26:05.503Z,0.90
2023-05-16T09:28:32.260Z,2.60
2023-05-16T09:31:00.050Z,1.10
2023-05-16T09:33:29.968Z,2.70
2023-05-16T09:36:00.678Z,2.80
2023-05-16T09:38:28.001Z,4.50
2023-05-16T09:40:55.259Z,3.20
2023-05-16T09:43:26.287Z,3.10
2023-05-16T09:45:53.094Z,1.20
2023-05-16T09:48:21.165Z,1.70
2023-05-16T09:50:55.141Z,2.30
2023-05-16T09:53:28.871Z,0.80
2023-05-16T09:56:03.528Z,2.50
2023-05-16T09:58:33.363Z,0.90
2023-05-16T10:01:00.189Z,2.80
2023-05-16T10:03:27.372Z,0.60
2023-05-16T10:05:54.831Z,2.30
2023-05-16T10:08:25.851Z,1.00
2023-05-16T10:10:55.704Z,3.60
2023-05-16T10:13:30.934Z,3.60
2023-05-16T10:15:59.027Z,2.10
2023-05-16T10:18:35.053Z,2.90
2023-05-16T10:21:10.423Z,5.20
2023-05-16T10:23:38.458Z,1.10
2023-05-16T10:26:06.197Z,3.70
2023-05-16T10:28:32.995Z,1.00
2023-05-16T10:30:59.816Z,1.40
2023-05-16T10:33:26.745Z,2.40
2023-05-16T10:35:53.534Z,1.80
2023-05-16T10:38:20.529Z,1.30
2023-05-16T10:40:47.468Z,1.00
2023-05-16T10:43:30.692Z,1.20
2023-05-16T10:46:03.001Z,1.40
2023-05-16T10:48:37.025Z,1.00
2023-05-16T10:51:05.628Z,3.60
2023-05-16T10:53:34.133Z,0.50
2023-05-16T10:56:04.019Z,1.30
2023-05-16T10:58:38.475Z,1.60
2023-05-16T11:03:57.259Z,1.20
2023-05-16T11:06:27.862Z,0.90
2023-05-16T11:09:05.704Z,3.70
2023-05-16T11:11:51.752Z,0.90
2023-05-16T11:14:25.523Z,1.00
2023-05-16T11:17:09.429Z,1.10
2023-05-16T11:19:40.603Z,2.20
2023-05-16T11:22:08.575Z,4.80
2023-05-16T11:24:36.537Z,1.50
2023-05-16T11:27:04.317Z,0.70
2023-05-16T11:29:35.757Z,3.10
2023-05-16T11:32:04.298Z,1.10
2023-05-16T11:34:37.713Z,1.30
2023-05-16T11:37:04.801Z,1.10
2023-05-16T11:39:32.639Z,1.20
2023-05-16T11:41:59.437Z,4.20
2023-05-16T11:44:26.484Z,1.80
2023-05-16T11:46:53.268Z,4.10
2023-05-16T11:49:19.996Z,4.10
2023-05-16T11:51:46.843Z,2.00
2023-05-16T11:54:13.601Z,2.40
2023-05-16T11:56:43.209Z,1.40
2023-05-16T11:59:11.207Z,2.60
2023-05-16T12:01:39.312Z,1.20
2023-05-16T12:04:10.889Z,0.90
2023-05-16T12:06:38.475Z,1.20
2023-05-16T12:09:10.689Z,0.80
2023-05-16T12:11:38.578Z,2.90
2023-05-16T12:14:06.468Z,1.10
2023-05-16T12:16:33.346Z,4.70
2023-05-16T12:19:02.077Z,4.90
2023-05-16T12:21:28.808Z,8.80
2023-05-16T12:23:56.618Z,3.00
2023-05-16T12:26:30.828Z,2.50
2023-05-16T12:29:00.962Z,3.20
2023-05-16T12:31:32.263Z,3.30
2023-05-16T12:33:59.713Z,2.70
2023-05-16T12:36:26.575Z,4.20
2023-05-16T12:38:53.627Z,1.20
2023-05-16T12:41:21.765Z,2.20
2023-05-16T12:43:51.863Z,5.10
2023-05-16T12:46:19.858Z,4.80
2023-05-16T12:48:48.258Z,4.80
2023-05-16T12:51:17.986Z,6.90
2023-05-16T12:53:57.533Z,1.70
2023-05-16T12:56:28.579Z,3.30
2023-05-16T12:58:55.345Z,2.40
2023-05-16T13:01:22.152Z,2.10
2023-05-16T13:03:48.967Z,1.70
2023-05-16T13:06:16.046Z,1.60
2023-05-16T13:08:42.752Z,3.10
2023-05-16T13:11:09.493Z,1.80
2023-05-16T13:13:37.317Z,1.80
2023-05-16T13:16:04.465Z,2.90
2023-05-16T13:18:31.650Z,4.00
2023-05-16T13:20:58.558Z,3.40
2023-05-16T13:23:25.276Z,2.90
2023-05-16T13:25:53.141Z,2.50
2023-05-16T13:28:19.907Z,1.30
2023-05-16T13:30:46.828Z,0.80
2023-05-16T13:33:13.759Z,3.10
2023-05-16T13:35:40.659Z,1.30
2023-05-16T13:38:07.433Z,2.00
2023-05-16T13:40:34.271Z,2.80
2023-05-16T13:43:01.844Z,2.50
2023-05-16T13:45:28.991Z,2.50
2023-05-16T13:47:55.996Z,1.30
2023-05-16T13:50:22.766Z,1.90
2023-05-16T13:52:49.436Z,5.00
2023-05-16T13:55:16.173Z,2.30
2023-05-16T13:57:42.930Z,6.30
2023-05-16T14:00:43.588Z,1.00
2023-05-16T14:02:59.462Z,1.90
2023-05-16T14:05:26.446Z,1.40
2023-05-16T14:07:53.370Z,2.60
2023-05-16T14:10:20.152Z,1.80
2023-05-16T14:12:46.814Z,2.00
2023-05-16T14:15:13.543Z,4.80
2023-05-16T14:17:40.388Z,5.00
2023-05-16T14:20:10.753Z,2.80
2023-05-16T14:22:37.703Z,0.90
2023-05-16T14:25:06.317Z,0.80
2023-05-16T14:27:33.075Z,5.40
2023-05-16T14:29:59.798Z,1.80
2023-05-16T14:32:27.088Z,0.90
2023-05-16T14:34:54.021Z,4.90
2023-05-16T14:37:21.024Z,1.40
2023-05-16T14:39:50.184Z,2.20
2023-05-16T14:42:18.161Z,3.90
2023-05-16T14:44:44.888Z,0.80
2023-05-16T14:47:11.814Z,4.40
2023-05-16T14:49:38.746Z,16.90
2023-05-16T14:52:06.446Z,31.70
2023-05-16T14:54:33.497Z,20.80
2023-05-16T14:57:01.136Z,15.40
2023-05-16T14:59:28.007Z,52.00
2023-05-16T15:01:55.004Z,51.70
2023-05-16T15:04:22.138Z,15.80
2023-05-16T15:06:49.012Z,9.70
2023-05-16T15:09:15.812Z,4.90
2023-05-16T15:11:42.586Z,3.50
2023-05-16T15:14:09.271Z,0.90
2023-05-16T15:16:36.449Z,2.70
2023-05-16T15:19:03.357Z,3.10
2023-05-16T15:21:31.622Z,2.50
2023-05-16T15:23:58.868Z,2.80
2023-05-16T15:26:25.688Z,1.80
2023-05-16T15:28:52.449Z,0.90
2023-05-16T15:31:19.228Z,2.40
2023-05-16T15:33:48.268Z,3.70
2023-05-16T15:36:15.318Z,1.30
2023-05-16T15:38:45.378Z,0.50
2023-05-16T15:41:18.727Z,2.10
2023-05-16T15:43:53.531Z,5.50
2023-05-16T15:46:20.370Z,6.80
2023-05-16T15:48:47.071Z,4.30
2023-05-16T15:51:15.650Z,4.70
2023-05-16T15:53:42.366Z,6.00
2023-05-16T15:56:09.650Z,2.80
2023-05-16T15:58:36.423Z,1.50
2023-05-16T16:01:03.344Z,3.10
2023-05-16T16:03:30.263Z,2.70
2023-05-16T16:05:57.242Z,2.50
2023-05-16T16:08:24.050Z,1.50
2023-05-16T16:10:51.479Z,1.10
2023-05-16T16:13:18.180Z,4.30
2023-05-16T16:15:44.978Z,3.60
2023-05-16T16:18:13.885Z,4.20
2023-05-16T16:20:40.948Z,3.90
2023-05-16T16:23:08.252Z,5.30
2023-05-16T16:25:34.907Z,0.90
2023-05-16T16:28:01.744Z,0.90
2023-05-16T16:30:28.406Z,3.90
2023-05-16T16:32:55.187Z,4.20
2023-05-16T16:35:24.628Z,3.10
2023-05-16T16:38:05.624Z,4.00
2023-05-16T16:40:33.366Z,3.60
2023-05-16T16:43:00.144Z,1.50
2023-05-16T16:45:27.147Z,2.30
2023-05-16T16:47:54.272Z,2.20
2023-05-16T16:50:21.317Z,1.60
2023-05-16T16:52:48.054Z,1.40
2023-05-16T16:55:15.049Z,1.40
2023-05-16T16:57:42.457Z,1.30
2023-05-16T17:00:11.458Z,3.40
2023-05-16T17:02:38.660Z,2.00
2023-05-16T17:05:06.199Z,1.40
2023-05-16T17:07:33.127Z,3.50
2023-05-16T17:10:01.193Z,2.60
2023-05-16T17:12:29.045Z,2.70
2023-05-16T17:14:57.320Z,2.10
2023-05-16T17:17:25.234Z,3.10
2023-05-16T17:19:52.317Z,2.00
2023-05-16T17:22:19.102Z,2.80
2023-05-16T17:24:45.992Z,2.00
2023-05-16T17:27:13.555Z,3.20
2023-05-16T17:29:40.204Z,0.80
2023-05-16T17:32:07.229Z,1.10
2023-05-16T17:34:33.987Z,1.20
2023-05-16T17:37:00.693Z,0.80
2023-05-16T17:39:27.636Z,1.50
2023-05-16T17:41:55.198Z,3.90
2023-05-16T17:44:21.871Z,1.60
2023-05-16T17:46:49.036Z,1.30
2023-05-16T17:49:16.062Z,1.40
2023-05-16T17:51:46.646Z,4.10
2023-05-16T17:54:13.733Z,2.30
2023-05-16T17:56:40.425Z,2.50
2023-05-16T17:59:07.315Z,1.40
2023-05-16T18:01:34.177Z,9.30
2023-05-16T18:04:01.369Z,2.80
2023-05-16T18:06:28.358Z,4.40
2023-05-16T18:08:55.072Z,1.30
2023-05-16T18:11:22.405Z,1.40
2023-05-16T18:13:49.218Z,1.40
2023-05-16T18:16:16.174Z,2.80
2023-05-16T18:18:43.047Z,4.00
2023-05-16T18:21:10.046Z,1.80
2023-05-16T18:23:37.024Z,1.20
2023-05-16T18:26:03.824Z,2.60
2023-05-16T18:28:30.834Z,2.80
2023-05-16T18:30:57.642Z,2.40
2023-05-16T18:33:24.349Z,4.00
2023-05-16T18:35:51.300Z,3.90
2023-05-16T18:38:31.170Z,3.80
2023-05-16T18:40:59.397Z,2.30
2023-05-16T18:43:26.314Z,1.30
2023-05-16T18:45:53.002Z,3.90
2023-05-16T18:48:20.075Z,3.60
2023-05-16T18:50:47.258Z,2.50
2023-05-16T18:55:53.044Z,6.40
2023-05-16T18:58:20.048Z,3.70
2023-05-16T19:00:49.528Z,3.20
2023-05-16T19:03:17.376Z,3.10
2023-05-16T19:05:44.941Z,2.70
2023-05-16T19:08:12.099Z,2.10
2023-05-16T19:10:41.543Z,8.70
2023-05-16T19:13:08.904Z,2.40
2023-05-16T19:15:35.956Z,2.30
2023-05-16T19:18:04.965Z,1.10
2023-05-16T19:20:33.178Z,3.00
2023-05-16T19:23:00.114Z,2.30
2023-05-16T19:25:27.114Z,4.60
2023-05-16T19:27:54.276Z,2.60
2023-05-16T19:30:21.270Z,1.70
2023-05-16T19:32:48.002Z,5.00
2023-05-16T19:35:14.855Z,1.20
2023-05-16T19:37:41.602Z,2.60
2023-05-16T19:40:08.742Z,2.50
2023-05-16T19:42:35.676Z,2.10
2023-05-16T19:45:02.386Z,1.60
2023-05-16T19:47:29.166Z,5.00
2023-05-16T19:49:56.087Z,1.40
2023-05-16T19:52:22.822Z,3.10
2023-05-16T19:54:49.568Z,4.60
2023-05-16T19:57:16.813Z,1.10
2023-05-16T19:59:43.498Z,1.80
2023-05-16T20:02:10.285Z,7.10
2023-05-16T20:04:37.342Z,1.00
2023-05-16T20:07:04.072Z,2.70
2023-05-16T20:09:31.279Z,7.20
2023-05-16T20:11:58.875Z,1.10
2023-05-16T20:14:25.863Z,3.10
2023-05-16T20:16:53.042Z,1.80
2023-05-16T20:19:20.002Z,1.60
2023-05-16T20:21:46.801Z,0.80
2023-05-16T20:24:14.477Z,1.40
2023-05-16T20:26:41.510Z,1.00
2023-05-16T20:29:08.312Z,1.10
2023-05-16T20:31:35.083Z,4.90
2023-05-16T20:34:01.938Z,2.80
2023-05-16T20:36:28.719Z,2.10
2023-05-16T20:38:55.517Z,3.40
2023-05-16T20:41:22.480Z,3.40
2023-05-16T20:43:50.617Z,1.90
2023-05-16T20:46:17.329Z,1.80
2023-05-16T20:48:44.149Z,0.90
2023-05-16T20:51:10.865Z,4.50
2023-05-16T20:53:37.581Z,3.00
2023-05-16T20:56:04.634Z,1.40
2023-05-16T20:58:31.292Z,4.00
2023-05-16T21:00:58.470Z,1.10
2023-05-16T21:03:25.310Z,1.70
2023-05-16T21:05:52.204Z,1.50
2023-05-16T21:08:19.118Z,3.60
2023-05-16T21:10:46.043Z,1.60
2023-05-16T21:13:12.697Z,2.50
2023-05-16T21:15:39.694Z,1.40
2023-05-16T21:18:06.748Z,1.90
2023-05-16T21:20:33.562Z,1.50
2023-05-16T21:23:00.374Z,3.40
2023-05-16T21:25:28.868Z,1.30
2023-05-16T21:27:56.272Z,0.80
2023-05-16T21:30:22.992Z,3.90
2023-05-16T21:32:49.773Z,3.20
2023-05-16T21:35:16.581Z,1.50
2023-05-16T21:37:43.262Z,0.70
2023-05-16T21:40:10.615Z,2.80
2023-05-16T21:42:37.294Z,2.50
2023-05-16T21:45:04.499Z,1.60
2023-05-16T21:47:31.383Z,3.40
2023-05-16T21:49:58.228Z,1.10
2023-05-16T21:52:25.896Z,1.20
2023-05-16T21:54:52.920Z,4.20
2023-05-16T21:57:19.892Z,3.30
2023-05-16T21:59:46.623Z,1.60
2023-05-16T22:02:13.514Z,1.10
2023-05-16T22:04:40.592Z,2.40
2023-05-16T22:07:07.436Z,2.20
2023-05-16T22:09:34.258Z,0.90
2023-05-16T22:12:00.975Z,3.50
2023-05-16T22:14:27.683Z,1.20
2023-05-16T22:16:54.595Z,1.70
2023-05-16T22:19:21.366Z,2.50
2023-05-16T22:21:48.059Z,1.30
2023-05-16T22:24:14.930Z,0.60
2023-05-16T22:26:41.777Z,1.50
2023-05-16T22:29:08.637Z,1.40
2023-05-16T22:31:35.563Z,4.90
2023-05-16T22:34:03.076Z,0.90
2023-05-16T22:36:29.811Z,2.30
2023-05-16T22:38:56.505Z,4.20
2023-05-16T22:41:23.222Z,3.40
2023-05-16T22:43:49.884Z,4.20
2023-05-16T22:46:16.572Z,2.40
2023-05-16T22:48:43.346Z,3.00
2023-05-16T22:51:10.137Z,3.00
2023-05-16T22:53:37.102Z,0.70
2023-05-16T22:56:04.214Z,3.60
2023-05-16T22:58:30.951Z,2.40
2023-05-16T23:00:58.122Z,3.40
2023-05-16T23:03:24.948Z,2.70
2023-05-16T23:05:51.654Z,1.10
2023-05-16T23:08:18.348Z,1.00
2023-05-16T23:10:45.113Z,2.60
2023-05-16T23:13:11.796Z,2.00
2023-05-16T23:15:38.559Z,3.20
2023-05-16T23:18:06.097Z,1.00
2023-05-16T23:20:32.904Z,1.00
2023-05-16T23:22:59.983Z,1.80
2023-05-16T23:25:26.950Z,3.50
2023-05-16T23:27:58.062Z,1.00
2023-05-16T23:30:25.038Z,3.50
2023-05-16T23:32:51.989Z,2.50
2023-05-16T23:35:18.790Z,1.50
2023-05-16T23:37:45.577Z,1.50
2023-05-16T23:40:12.583Z,1.40
2023-05-16T23:42:41.222Z,1.80
2023-05-16T23:45:08.471Z,1.00
2023-05-16T23:47:35.280Z,1.70
2023-05-16T23:50:03.498Z,2.40
2023-05-16T23:52:30.902Z,1.30
2023-05-16T23:54:57.681Z,3.30
2023-05-16T23:57:24.357Z,2.10
2023-05-16T23:59:51.188Z,1.40
